Time;durP1;ratioP1;P1;durP2;ratioP2;P2;SDS_P1;SDS_P2;PMS_P1;PMS_P2;Temp;Humidity;BMP_temperature;BMP_pressure;BME280_temperature;BME280_humidity;BME280_pressure;Samples;Min_cycle;Max_cycle;Signal;HPM_P1;HPM_P2
2022/07/29 00:01:08;;;;;;;6.30;2.55;;;;;;;19.06;52.60;99504.41;5009111;28;20501;-67
2022/07/29 00:03:35;;;;;;;8.82;2.60;;;;;;;19.02;53.57;99500.28;5009040;28;20046;-69
2022/07/29 00:06:01;;;;;;;7.22;2.55;;;;;;;18.97;53.60;99488.34;5008479;28;20056;-69
2022/07/29 00:08:28;;;;;;;12.27;3.22;;;;;;;18.87;54.24;99486.47;5025017;28;20056;-70
2022/07/29 00:10:54;;;;;;;5.15;2.42;;;;;;;18.83;54.47;99484.25;5028450;28;20594;-70
2022/07/29 00:13:21;;;;;;;6.72;2.80;;;;;;;18.75;54.48;99481.34;5028654;28;20041;-69
2022/07/29 00:15:49;;;;;;;7.78;3.63;;;;;;;18.69;54.95;99487.25;5027659;28;20055;-70
2022/07/29 00:18:15;;;;;;;7.45;2.83;;;;;;;18.61;55.25;99483.41;5028609;28;20141;-69
2022/07/29 00:20:42;;;;;;;5.97;2.50;;;;;;;18.55;55.79;99485.78;5028371;28;20056;-70
2022/07/29 00:23:09;;;;;;;7.35;2.88;;;;;;;18.47;56.23;99475.75;5028708;28;20049;-70
2022/07/29 00:25:35;;;;;;;6.68;3.08;;;;;;;18.39;56.45;99479.09;5028118;28;20050;-70
2022/07/29 00:28:02;;;;;;;7.95;2.25;;;;;;;18.34;56.08;99473.31;5028420;28;20136;-69
2022/07/29 00:30:28;;;;;;;10.25;2.53;;;;;;;18.30;56.78;99471.88;5024505;28;20042;-69
2022/07/29 00:32:56;;;;;;;4.97;2.35;;;;;;;18.23;57.24;99466.22;5027767;28;20045;-69
2022/07/29 00:38:08;;;;;;;11.18;3.88;;;;;;;18.10;57.58;99462.09;5028095;28;20107;-68
2022/07/29 00:40:34;;;;;;;7.72;2.67;;;;;;;18.12;58.01;99466.31;5027920;28;20051;-70
2022/07/29 00:43:01;;;;;;;5.20;2.22;;;;;;;18.06;58.20;99466.81;5028162;28;20083;-70
2022/07/29 00:45:29;;;;;;;6.10;2.30;;;;;;;18.01;58.03;99463.72;5027159;28;20049;-71
2022/07/29 00:47:57;;;;;;;8.00;2.97;;;;;;;18.03;57.98;99464.44;5028032;28;20153;-69
2022/07/29 00:50:24;;;;;;;6.90;2.53;;;;;;;18.01;58.49;99455.72;5027975;28;20580;-69
2022/07/29 00:52:52;;;;;;;6.47;2.50;;;;;;;17.96;58.87;99460.59;5027852;28;20045;-68
2022/07/29 00:55:19;;;;;;;7.10;2.70;;;;;;;17.92;59.03;99460.03;5027360;28;20046;-69
2022/07/29 00:57:46;;;;;;;5.25;2.85;;;;;;;17.90;59.20;99467.31;5027799;28;20444;-71
2022/07/29 01:00:17;;;;;;;11.35;3.05;;;;;;;17.89;59.29;99459.41;5027353;28;20049;-69
2022/07/29 01:02:43;;;;;;;6.35;2.65;;;;;;;17.96;59.01;99469.44;5027869;28;20068;-71
2022/07/29 01:05:12;;;;;;;6.32;2.45;;;;;;;18.09;58.28;99463.06;5027222;28;20084;-69
2022/07/29 01:07:39;;;;;;;8.30;2.38;;;;;;;18.20;57.28;99469.16;5017966;28;20072;-69
2022/07/29 01:10:10;;;;;;;5.00;2.42;;;;;;;18.30;55.79;99476.38;5007898;28;20054;-70
2022/07/29 01:12:38;;;;;;;6.55;3.00;;;;;;;18.35;55.63;99467.00;5027018;28;20056;-70
2022/07/29 01:15:08;;;;;;;3.72;2.30;;;;;;;18.43;54.45;99467.19;5027109;28;20053;-72
2022/07/29 01:17:39;;;;;;;7.80;2.83;;;;;;;18.50;53.80;99455.97;5027566;28;20056;-70
2022/07/29 01:20:12;;;;;;;7.82;2.72;;;;;;;18.52;52.67;99454.84;5027620;28;20054;-70
2022/07/29 01:23:02;;;;;;;6.72;2.72;;;;;;;18.56;52.73;99455.44;5027752;28;20057;-69
2022/07/29 01:25:49;;;;;;;5.57;2.22;;;;;;;18.56;52.31;99455.44;5027356;28;20076;-69
2022/07/29 01:28:35;;;;;;;5.90;2.17;;;;;;;18.57;52.38;99457.97;5027765;28;20053;-70
2022/07/29 01:31:05;;;;;;;4.50;2.20;;;;;;;18.61;52.23;99462.06;5027535;28;20057;-69
2022/07/29 01:33:50;;;;;;;5.53;2.00;;;;;;;18.65;52.30;99462.63;5027462;28;20047;-70
2022/07/29 01:36:19;;;;;;;7.20;2.33;;;;;;;18.67;52.29;99455.31;5027335;28;20057;-70
2022/07/29 01:38:54;;;;;;;3.75;1.83;;;;;;;18.66;51.90;99454.47;5027083;28;20432;-70
2022/07/29 01:41:23;;;;;;;6.15;2.25;;;;;;;18.63;52.26;99461.91;5027038;28;20140;-70
2022/07/29 01:43:55;;;;;;;4.55;2.10;;;;;;;18.58;52.59;99453.47;5027185;28;20058;-70
2022/07/29 01:46:28;;;;;;;6.50;2.60;;;;;;;18.54;52.77;99458.22;5027081;28;20806;-69
2022/07/29 01:49:02;;;;;;;6.07;2.55;;;;;;;18.44;53.16;99452.84;5024490;28;20086;-69
2022/07/29 01:51:34;;;;;;;9.05;3.20;;;;;;;18.33;53.73;99450.25;5027533;28;20412;-69
2022/07/29 01:54:06;;;;;;;4.53;1.92;;;;;;;18.33;53.64;99458.25;5026400;28;20046;-69
2022/07/29 01:56:35;;;;;;;7.03;3.08;;;;;;;18.26;54.42;99453.59;5027165;28;20049;-70
2022/07/29 01:59:07;;;;;;;6.80;2.67;;;;;;;18.17;54.70;99456.09;5026872;28;20057;-69
2022/07/29 02:01:35;;;;;;;6.15;2.78;;;;;;;18.14;54.92;99464.38;5027037;28;20049;-68
2022/07/29 02:04:06;;;;;;;8.82;2.33;;;;;;;18.12;55.11;99460.16;5026424;28;20060;-71
2022/07/29 02:06:34;;;;;;;6.25;3.38;;;;;;;18.15;54.93;99459.88;5026083;28;20069;-70
2022/07/29 02:09:03;;;;;;;15.60;2.88;;;;;;;18.13;54.92;99460.00;5018450;28;20049;-69
2022/07/29 02:11:31;;;;;;;7.22;2.55;;;;;;;18.09;55.08;99455.91;5026876;28;20484;-69
2022/07/29 02:14:00;;;;;;;9.65;2.80;;;;;;;18.00;55.49;99460.19;5026356;28;20452;-69
2022/07/29 02:16:31;;;;;;;7.05;2.83;;;;;;;17.94;56.12;99457.19;5026960;28;20064;-69
2022/07/29 02:19:01;;;;;;;7.90;3.63;;;;;;;17.91;56.20;99452.13;5026738;28;20049;-69
2022/07/29 02:21:30;;;;;;;10.50;2.55;;;;;;;17.90;55.80;99448.63;5027071;28;20045;-69
2022/07/29 02:24:00;;;;;;;7.55;2.63;;;;;;;17.99;56.02;99458.53;5029755;28;20045;-69
2022/07/29 02:26:28;;;;;;;4.82;2.65;;;;;;;18.02;55.63;99457.41;5030579;28;20061;-69
2022/07/29 02:28:58;;;;;;;5.25;3.30;;;;;;;18.06;55.50;99457.97;5030611;28;20045;-68
2022/07/29 02:31:33;;;;;;;5.55;2.70;;;;;;;17.97;56.04;99451.63;5026316;28;20041;-70
2022/07/29 02:34:04;;;;;;;6.97;3.15;;;;;;;17.94;55.93;99449.19;5009854;28;20497;-71
2022/07/29 02:36:32;;;;;;;5.05;2.97;;;;;;;17.96;55.87;99455.25;5010504;28;20450;-70
2022/07/29 02:39:00;;;;;;;6.38;2.42;;;;;;;18.00;56.03;99457.53;5010472;28;20060;-71
2022/07/29 02:41:29;;;;;;;8.18;3.22;;;;;;;18.03;55.68;99459.09;5010132;28;20050;-68
2022/07/29 02:43:59;;;;;;;9.38;3.03;;;;;;;18.02;55.66;99462.75;5009671;28;20557;-69
2022/07/29 02:46:30;;;;;;;7.53;2.50;;;;;;;18.06;55.70;99471.31;5010024;28;20076;-70
2022/07/29 02:49:05;;;;;;;10.23;2.75;;;;;;;18.07;55.64;99470.38;5010217;28;20053;-70
2022/07/29 02:51:41;;;;;;;7.10;3.17;;;;;;;18.08;55.45;99472.88;5010169;28;20045;-71
2022/07/29 02:54:10;;;;;;;5.32;2.72;;;;;;;18.15;55.40;99467.88;5009405;28;20695;-71
2022/07/29 02:56:39;;;;;;;8.57;2.53;;;;;;;18.15;55.53;99476.72;5009815;28;20429;-70
2022/07/29 02:59:11;;;;;;;9.48;3.05;;;;;;;18.14;55.60;99475.03;5009872;28;20050;-69
2022/07/29 03:01:42;;;;;;;9.57;3.22;;;;;;;18.14;55.51;99476.84;5009980;28;20068;-69
2022/07/29 03:04:14;;;;;;;7.40;3.13;;;;;;;18.16;55.25;99473.09;5020501;28;20173;-70
2022/07/29 03:06:41;;;;;;;4.97;2.78;;;;;;;18.18;55.15;99476.44;5027677;28;20695;-70
2022/07/29 03:09:09;;;;;;;10.82;3.47;;;;;;;18.22;55.25;99469.88;5009522;28;20099;-70
2022/07/29 03:11:36;;;;;;;6.53;2.92;;;;;;;18.22;55.07;99477.88;5026134;28;20508;-70
2022/07/29 03:14:05;;;;;;;7.32;2.75;;;;;;;18.17;55.65;99472.09;5029151;28;20144;-69
2022/07/29 03:16:32;;;;;;;7.20;2.55;;;;;;;18.18;55.15;99475.59;5029152;28;20424;-69
2022/07/29 03:18:59;;;;;;;6.43;3.25;;;;;;;18.17;55.52;99477.44;5029453;28;20049;-70
2022/07/29 03:21:27;;;;;;;5.15;2.55;;;;;;;18.17;55.49;99481.94;5029238;28;20520;-70
2022/07/29 03:23:54;;;;;;;6.00;2.45;;;;;;;18.15;55.73;99482.06;5028790;28;20052;-71
2022/07/29 03:26:21;;;;;;;4.70;2.55;;;;;;;18.14;55.71;99484.84;5029160;28;20058;-68
2022/07/29 03:28:47;;;;;;;4.78;2.03;;;;;;;18.16;55.91;99478.44;5029385;28;20053;-70
2022/07/29 03:31:14;;;;;;;6.68;2.65;;;;;;;18.14;56.20;99472.38;5029415;28;20053;-69
2022/07/29 03:33:40;;;;;;;4.50;2.47;;;;;;;18.14;56.31;99479.50;5028210;28;20046;-69
2022/07/29 03:36:07;;;;;;;4.00;2.22;;;;;;;18.10;56.60;99472.75;5028649;28;20672;-71
2022/07/29 03:38:37;;;;;;;10.73;2.80;;;;;;;18.05;56.56;99481.16;5029165;28;20425;-71
2022/07/29 03:41:06;;;;;;;8.30;2.50;;;;;;;18.00;57.08;99480.69;5028995;28;20080;-70
2022/07/29 03:43:37;;;;;;;8.02;2.83;;;;;;;17.95;57.53;99482.91;5029024;28;20045;-68
2022/07/29 03:46:07;;;;;;;6.90;2.88;;;;;;;17.89;57.30;99478.94;5028288;28;20140;-69
2022/07/29 03:48:36;;;;;;;6.72;2.72;;;;;;;17.86;57.89;99475.69;5028801;28;20064;-69
2022/07/29 03:51:03;;;;;;;4.50;2.55;;;;;;;17.87;57.56;99488.91;5015095;28;20054;-69
2022/07/29 03:53:32;;;;;;;7.40;3.17;;;;;;;17.89;57.76;99486.09;5008920;28;20184;-69
2022/07/29 03:56:01;;;;;;;5.30;2.72;;;;;;;17.87;57.94;99496.91;5008257;28;20054;-69
2022/07/29 03:58:31;;;;;;;9.20;2.45;;;;;;;17.80;57.97;99495.72;5009010;28;20133;-69
2022/07/29 04:00:58;;;;;;;6.95;2.78;;;;;;;17.80;58.10;99495.72;5024347;28;20144;-68
2022/07/29 04:03:25;;;;;;;4.82;2.53;;;;;;;17.81;58.16;99494.75;5028496;28;20045;-68
2022/07/29 04:06:02;;;;;;;9.43;3.50;;;;;;;17.77;58.21;99494.13;5027896;28;20529;-71
2022/07/29 04:08:29;;;;;;;11.63;3.15;;;;;;;17.77;58.27;99494.13;5011668;28;20060;-70
2022/07/29 04:10:55;;;;;;;6.03;2.35;;;;;;;17.75;58.10;99501.41;5008458;28;20054;-70
2022/07/29 04:13:23;;;;;;;5.90;3.53;;;;;;;17.80;58.22;99501.91;5008863;28;20046;-69
2022/07/29 04:15:50;;;;;;;7.70;2.90;;;;;;;17.77;58.25;99502.13;5008254;28;20081;-70
2022/07/29 04:18:17;;;;;;;6.53;2.90;;;;;;;17.76;58.14;99512.91;5008702;28;20046;-70
2022/07/29 04:20:44;;;;;;;4.57;2.38;;;;;;;17.74;58.15;99506.84;5008440;28;20052;-71
2022/07/29 04:23:10;;;;;;;7.40;3.22;;;;;;;17.72;58.56;99508.81;5008507;28;20050;-69
2022/07/29 04:25:39;;;;;;;6.78;2.75;;;;;;;17.69;58.83;99501.06;5007848;28;20133;-70
2022/07/29 04:28:06;;;;;;;5.57;2.58;;;;;;;17.70;58.83;99503.63;5008441;28;20057;-69
2022/07/29 04:30:35;;;;;;;12.23;3.78;;;;;;;17.72;58.69;99499.00;5008362;28;20050;-69
2022/07/29 04:33:03;;;;;;;6.60;3.50;;;;;;;17.62;59.08;99492.72;5019356;28;20055;-69
2022/07/29 04:35:30;;;;;;;11.05;3.38;;;;;;;17.55;59.47;99492.41;5027659;28;20060;-70
2022/07/29 04:37:56;;;;;;;10.90;3.55;;;;;;;17.46;59.54;99490.50;5028083;28;20048;-69
2022/07/29 04:40:23;;;;;;;9.50;4.53;;;;;;;17.43;59.69;99488.09;5027827;28;20057;-69
2022/07/29 04:42:49;;;;;;;9.52;3.35;;;;;;;17.44;59.90;99499.59;5028095;28;20045;-68
2022/07/29 04:45:16;;;;;;;13.07;3.95;;;;;;;17.48;59.58;99503.72;5026931;28;20081;-68
2022/07/29 04:47:44;;;;;;;6.05;3.03;;;;;;;17.56;59.21;99495.91;5028264;28;21072;-68
2022/07/29 04:50:11;;;;;;;6.65;2.63;;;;;;;17.58;59.71;99492.16;5027752;28;20056;-68
2022/07/29 04:52:38;;;;;;;8.75;4.05;;;;;;;17.62;59.16;99487.38;5028075;28;20053;-68
2022/07/29 04:55:06;;;;;;;12.45;2.38;;;;;;;17.67;58.50;99498.53;5027252;28;20052;-69
2022/07/29 04:57:33;;;;;;;7.22;2.70;;;;;;;17.67;58.76;99506.53;5025177;28;20489;-70
2022/07/29 04:59:59;;;;;;;7.88;2.83;;;;;;;17.65;58.95;99504.97;5027491;28;20049;-69
2022/07/29 05:02:26;;;;;;;8.98;2.75;;;;;;;17.68;58.87;99515.38;5027722;28;20057;-69
2022/07/29 05:04:54;;;;;;;6.00;2.65;;;;;;;17.70;58.86;99514.28;5027261;28;20049;-70
2022/07/29 05:07:20;;;;;;;5.00;2.80;;;;;;;17.74;58.83;99510.38;5020088;28;20060;-69
2022/07/29 05:09:47;;;;;;;8.98;3.30;;;;;;;17.74;58.63;99504.19;5007677;28;20050;-69
2022/07/29 05:12:14;;;;;;;8.98;3.08;;;;;;;17.72;58.40;99508.81;5007909;28;20413;-69
2022/07/29 05:14:40;;;;;;;8.80;3.58;;;;;;;17.76;58.12;99505.75;5007394;28;20046;-70
2022/07/29 05:17:07;;;;;;;7.55;3.92;;;;;;;17.81;57.76;99506.25;5015932;28;20053;-69
2022/07/29 05:19:34;;;;;;;17.70;11.93;;;;;;;17.84;57.42;99504.31;5027351;28;20053;-69
2022/07/29 05:22:02;;;;;;;10.00;4.65;;;;;;;17.86;57.49;99510.34;5027536;28;20512;-70
2022/07/29 05:24:29;;;;;;;9.40;3.45;;;;;;;17.84;57.56;99504.31;5026528;28;20058;-70
2022/07/29 05:26:55;;;;;;;12.63;3.65;;;;;;;17.86;57.59;99499.69;5027406;28;20563;-69
2022/07/29 05:29:22;;;;;;;6.75;3.00;;;;;;;17.85;57.22;99504.19;5027658;28;20053;-69
2022/07/29 05:31:48;;;;;;;6.93;2.95;;;;;;;17.88;56.93;99506.59;5027456;28;20059;-69
2022/07/29 05:34:15;;;;;;;6.93;3.40;;;;;;;17.90;56.94;99511.81;5026860;28;20053;-71
2022/07/29 05:36:42;;;;;;;7.78;3.03;;;;;;;17.92;57.36;99509.84;5027813;28;20049;-70
2022/07/29 05:39:10;;;;;;;40.17;4.90;;;;;;;17.91;57.30;99516.16;5027587;28;20046;-70
2022/07/29 05:41:36;;;;;;;7.95;2.83;;;;;;;17.92;57.28;99515.19;5027478;28;20080;-70
2022/07/29 05:44:03;;;;;;;6.05;3.65;;;;;;;17.94;57.21;99508.75;5026928;28;20052;-70
2022/07/29 05:46:30;;;;;;;6.53;2.70;;;;;;;17.93;57.63;99511.53;5018730;28;20056;-70
2022/07/29 05:48:56;;;;;;;7.32;2.75;;;;;;;17.93;57.70;99508.88;5007884;28;20050;-69
2022/07/29 05:51:23;;;;;;;10.00;2.90;;;;;;;17.90;58.06;99509.97;5007518;28;20533;-69
2022/07/29 05:53:49;;;;;;;9.05;3.97;;;;;;;17.86;58.25;99511.19;5026076;28;20057;-70
2022/07/29 05:56:17;;;;;;;10.63;3.40;;;;;;;17.81;58.38;99516.91;5026751;28;20052;-69
2022/07/29 05:58:44;;;;;;;10.48;3.08;;;;;;;17.86;58.08;99521.03;5029833;28;20049;-70
2022/07/29 06:01:11;;;;;;;6.22;2.42;;;;;;;17.89;57.59;99520.75;5030815;28;20136;-70
2022/07/29 06:03:38;;;;;;;10.95;3.15;;;;;;;17.85;57.52;99522.84;5030630;28;20501;-69
2022/07/29 06:06:05;;;;;;;10.13;3.63;;;;;;;17.89;57.10;99518.09;5030016;28;20711;-68
2022/07/29 06:08:33;;;;;;;7.57;3.58;;;;;;;17.84;57.55;99517.63;5013540;28;20054;-70
2022/07/29 06:11:00;;;;;;;9.75;3.05;;;;;;;17.84;57.29;99529.13;5010670;28;20050;-70
2022/07/29 06:13:28;;;;;;;9.43;3.20;;;;;;;17.85;57.52;99514.00;5010849;28;20149;-69
2022/07/29 06:15:54;;;;;;;11.63;3.85;;;;;;;17.85;57.47;99512.19;5010229;28;20085;-71
2022/07/29 06:18:23;;;;;;;10.38;3.67;;;;;;;17.88;57.70;99508.41;5010728;28;20132;-70
2022/07/29 06:20:50;;;;;;;7.45;3.95;;;;;;;17.91;57.65;99502.81;5010771;28;20111;-68
2022/07/29 06:23:16;;;;;;;7.82;3.55;;;;;;;17.92;57.62;99507.19;5010866;28;20049;-70
2022/07/29 06:25:43;;;;;;;10.48;3.55;;;;;;;17.99;57.79;99505.66;5009953;28;20137;-69
2022/07/29 06:28:11;;;;;;;9.38;4.45;;;;;;;17.99;57.06;99503.00;5010545;28;20096;-71
2022/07/29 06:30:40;;;;;;;14.30;4.03;;;;;;;17.90;57.50;99499.31;5010664;28;20138;-70
2022/07/29 06:33:06;;;;;;;10.85;3.55;;;;;;;17.86;57.91;99505.88;5010465;28;20056;-70
2022/07/29 06:35:34;;;;;;;7.57;3.55;;;;;;;17.91;57.79;99505.47;5012220;28;20048;-70
2022/07/29 06:38:01;;;;;;;6.57;3.60;;;;;;;17.91;57.98;99510.81;5010336;28;20050;-70
2022/07/29 06:43:11;;;;;;;7.15;3.03;;;;;;;18.26;58.22;99523.81;5010712;28;20096;-68
2022/07/29 06:45:40;;;;;;;10.57;3.45;;;;;;;18.39;57.61;99515.63;5028536;28;20041;-69
2022/07/29 06:48:07;;;;;;;6.90;3.28;;;;;;;18.45;57.15;99515.94;5029940;28;20053;-67
2022/07/29 06:50:34;;;;;;;6.85;3.67;;;;;;;18.51;57.61;99503.03;5029932;28;20061;-67
2022/07/29 06:53:00;;;;;;;7.97;3.15;;;;;;;18.65;56.79;99518.69;5030104;28;20759;-69
2022/07/29 06:55:27;;;;;;;7.68;3.33;;;;;;;18.61;57.04;99514.63;5029292;28;20046;-67
2022/07/29 06:57:53;;;;;;;10.20;4.28;;;;;;;18.55;57.04;99515.97;5029999;28;20045;-65
2022/07/29 07:00:20;;;;;;;14.07;4.60;;;;;;;18.66;57.02;99523.91;5029986;28;20056;-70
2022/07/29 07:02:48;;;;;;;10.45;4.35;;;;;;;18.76;56.74;99520.47;5030845;28;20081;-67
2022/07/29 07:05:14;;;;;;;11.52;4.72;;;;;;;18.85;56.52;99527.66;5030785;28;20494;-67
2022/07/29 07:07:41;;;;;;;11.00;3.88;;;;;;;18.88;56.24;99530.91;5028928;28;20084;-66
2022/07/29 07:10:08;;;;;;;10.10;4.07;;;;;;;18.87;56.05;99531.88;5029711;28;20049;-65
2022/07/29 07:12:35;;;;;;;8.15;2.85;;;;;;;18.92;56.33;99544.84;5029330;28;20050;-67
2022/07/29 07:15:02;;;;;;;12.23;4.13;;;;;;;19.03;55.62;99547.44;5029301;28;20140;-68
2022/07/29 07:17:28;;;;;;;10.52;3.85;;;;;;;19.16;55.81;99543.66;5029532;28;20088;-67
2022/07/29 07:19:56;;;;;;;7.20;3.33;;;;;;;19.39;55.51;99546.94;5029070;28;20417;-67
2022/07/29 07:22:23;;;;;;;15.25;3.80;;;;;;;19.69;54.66;99535.31;5029456;28;20054;-67
2022/07/29 07:25:26;;;;;;;7.32;3.90;;;;;;;20.03;53.12;99545.59;5030436;28;20046;-69
2022/07/29 07:27:53;;;;;;;8.77;4.00;;;;;;;20.20;52.20;99547.56;5029625;28;20056;-67
2022/07/29 07:30:20;;;;;;;9.07;3.55;;;;;;;20.25;51.95;99547.97;5029273;28;20069;-68
2022/07/29 07:32:46;;;;;;;15.55;4.10;;;;;;;20.57;51.17;99552.16;5029364;28;20148;-68
2022/07/29 07:35:14;;;;;;;6.03;4.28;;;;;;;20.74;50.72;99551.41;5028448;28;20167;-68
2022/07/29 07:37:41;;;;;;;11.18;4.25;;;;;;;20.88;51.09;99543.91;5029316;28;20049;-66
2022/07/29 07:40:11;;;;;;;10.75;3.58;;;;;;;21.01;50.56;99537.19;5029366;28;20141;-67
2022/07/29 07:42:37;;;;;;;10.75;4.47;;;;;;;21.35;50.16;99535.75;5028746;28;20041;-67
2022/07/29 07:45:05;;;;;;;6.90;3.67;;;;;;;21.50;49.70;99534.25;5027887;28;20052;-66
2022/07/29 07:47:32;;;;;;;11.38;4.63;;;;;;;21.48;49.61;99536.25;5026533;28;20559;-68
2022/07/29 07:49:59;;;;;;;9.00;3.67;;;;;;;21.34;50.28;99542.09;5028647;28;20057;-51
2022/07/29 07:52:27;;;;;;;7.78;3.70;;;;;;;21.30;50.54;99538.03;5028827;28;20471;-53
2022/07/29 07:54:54;;;;;;;10.05;3.88;;;;;;;21.20;50.54;99540.78;5028198;28;20045;-52
2022/07/29 07:57:20;;;;;;;8.85;3.75;;;;;;;21.21;50.64;99548.66;5028596;28;20760;-52
2022/07/29 07:59:47;;;;;;;6.55;4.00;;;;;;;21.10;50.72;99534.63;5027999;28;20480;-52
2022/07/29 08:02:14;;;;;;;7.88;4.43;;;;;;;21.06;50.81;99539.41;5028271;28;20052;-52
2022/07/29 08:04:41;;;;;;;7.43;3.70;;;;;;;20.97;51.59;99543.03;5027754;28;20042;-56
2022/07/29 08:07:08;;;;;;;7.55;4.22;;;;;;;20.89;51.74;99545.56;5022780;28;20084;-48
2022/07/29 08:09:37;;;;;;;6.57;3.70;;;;;;;20.77;51.71;99553.81;5008778;28;20046;-54
2022/07/29 08:12:05;;;;;;;8.57;4.10;;;;;;;20.67;50.79;99558.34;5008661;28;20052;-53
2022/07/29 08:14:32;;;;;;;10.07;3.00;;;;;;;20.66;52.84;99558.50;5007711;28;20050;-55
2022/07/29 08:16:59;;;;;;;8.73;3.42;;;;;;;20.68;50.60;99567.25;5008016;28;20048;-54
2022/07/29 08:19:25;;;;;;;13.43;3.85;;;;;;;20.44;50.98;99557.81;5007814;28;20050;-50
2022/07/29 08:21:53;;;;;;;7.63;3.45;;;;;;;20.45;50.92;99554.13;5008165;28;20056;-52
2022/07/29 08:27:05;;;;;;;10.43;3.83;;;;;;;20.23;52.02;99560.69;5023814;28;20424;-55
2022/07/29 08:29:32;;;;;;;14.18;4.25;;;;;;;20.27;52.13;99559.38;5027918;28;20049;-71
2022/07/29 08:31:58;;;;;;;8.65;3.83;;;;;;;20.34;51.92;99565.84;5027829;28;20045;-70
2022/07/29 08:34:25;;;;;;;11.73;3.70;;;;;;;20.26;51.99;99568.41;5025789;28;20693;-72
2022/07/29 08:36:52;;;;;;;13.35;5.10;;;;;;;20.32;52.24;99569.66;5027535;28;20061;-70
2022/07/29 08:39:18;;;;;;;23.10;13.40;;;;;;;20.42;52.02;99575.00;5028111;28;20055;-72
2022/07/29 08:41:45;;;;;;;9.48;5.10;;;;;;;20.35;52.05;99566.69;5026116;28;20068;-69
2022/07/29 08:44:13;;;;;;;10.10;3.50;;;;;;;20.38;52.19;99572.63;5026912;28;20715;-71
2022/07/29 08:46:40;;;;;;;8.23;4.07;;;;;;;20.45;51.96;99574.72;5027830;28;20607;-71
2022/07/29 08:49:06;;;;;;;10.75;4.53;;;;;;;20.61;51.58;99566.97;5027681;28;20147;-72
2022/07/29 08:51:36;;;;;;;8.07;3.70;;;;;;;20.86;50.92;99567.31;5027777;28;20052;-70
2022/07/29 08:54:04;;;;;;;11.95;6.15;;;;;;;20.97;50.79;99567.97;5027322;28;20053;-70
2022/07/29 08:56:30;;;;;;;13.02;4.20;;;;;;;21.00;50.91;99566.84;5027622;28;20041;-69
2022/07/29 08:58:59;;;;;;;6.55;3.85;;;;;;;21.29;50.34;99565.81;5027304;28;20060;-69
2022/07/29 09:01:30;;;;;;;8.32;4.72;;;;;;;21.73;49.21;99568.69;5027697;28;20049;-67
2022/07/29 09:03:57;;;;;;;9.27;4.63;;;;;;;22.54;47.47;99567.72;5027254;28;20049;-70
2022/07/29 09:06:27;;;;;;;11.52;4.88;;;;;;;22.67;46.86;99565.47;5027190;28;20045;-69
2022/07/29 09:08:55;;;;;;;11.63;4.68;;;;;;;22.70;46.95;99574.03;5027453;28;20425;-69
2022/07/29 09:11:22;;;;;;;10.55;4.78;;;;;;;22.88;46.43;99570.44;5027339;28;20045;-69
2022/07/29 09:13:49;;;;;;;9.18;3.80;;;;;;;22.81;46.63;99575.59;5027365;28;20059;-69
2022/07/29 09:16:15;;;;;;;11.27;4.28;;;;;;;22.48;47.20;99580.78;5026862;28;20148;-70
2022/07/29 09:18:45;;;;;;;6.88;3.53;;;;;;;22.30;47.71;99571.94;5027185;28;20501;-69
2022/07/29 09:24:03;;;;;;;8.55;4.00;;;;;;;22.60;46.09;99570.63;5026939;28;20060;-70
2022/07/29 09:26:31;;;;;;;7.28;4.10;;;;;;;22.90;46.11;99569.28;5027446;28;20041;-69
2022/07/29 09:28:59;;;;;;;6.40;4.00;;;;;;;23.15;45.40;99570.25;5027326;28;20075;-67
2022/07/29 09:31:34;;;;;;;12.75;3.72;;;;;;;23.53;44.32;99565.34;5028444;28;20045;-70
2022/07/29 09:34:04;;;;;;;10.52;4.60;;;;;;;23.88;43.56;99567.97;5031045;28;20049;-68
2022/07/29 09:36:30;;;;;;;11.90;4.45;;;;;;;24.13;42.78;99579.59;5030957;28;20046;-69
2022/07/29 09:39:02;;;;;;;14.35;4.18;;;;;;;24.57;41.79;99573.88;5030978;28;20048;-68
2022/07/29 09:41:28;;;;;;;6.93;3.05;;;;;;;25.07;41.22;99570.84;5031356;28;20049;-69
2022/07/29 09:43:56;;;;;;;7.13;3.78;;;;;;;25.80;39.09;99576.09;5030701;28;20492;-69
2022/07/29 09:46:24;;;;;;;8.85;3.38;;;;;;;26.19;37.53;99581.41;5031068;28;20132;-71
2022/07/29 09:49:08;;;;;;;7.72;3.97;;;;;;;26.74;35.62;99585.63;5017093;28;20558;-71
2022/07/29 09:51:35;;;;;;;6.50;4.37;;;;;;;26.81;35.83;99580.34;5011477;28;20077;-73
2022/07/29 09:54:04;;;;;;;11.85;8.02;;;;;;;27.32;35.05;99582.28;5010877;28;20298;-70
2022/07/29 09:56:40;;;;;;;12.10;4.88;;;;;;;27.67;34.82;99580.63;5026483;28;20491;-68
2022/07/29 09:59:07;;;;;;;7.25;5.15;;;;;;;27.55;34.53;99580.28;5017869;28;20065;-69
2022/07/29 10:01:34;;;;;;;11.50;4.15;;;;;;;27.56;35.12;99586.53;5029886;28;20045;-70
2022/07/29 10:04:01;;;;;;;8.32;4.95;;;;;;;28.00;34.00;99581.00;5030249;28;20049;-69
2022/07/29 10:06:29;;;;;;;7.53;5.38;;;;;;;28.33;33.96;99582.34;5030365;28;20045;-70
2022/07/29 10:08:56;;;;;;;10.77;4.45;;;;;;;28.51;34.01;99574.59;5010924;28;20458;-70
2022/07/29 10:11:22;;;;;;;9.43;4.93;;;;;;;28.55;33.92;99572.31;5010508;28;20519;-69
2022/07/29 10:13:49;;;;;;;10.32;5.72;;;;;;;28.71;33.81;99582.03;5010980;28;20476;-69
2022/07/29 10:16:17;;;;;;;9.50;4.38;;;;;;;28.66;34.41;99578.03;5009956;28;20108;-69
2022/07/29 10:18:46;;;;;;;9.65;4.70;;;;;;;28.69;33.30;99574.09;5010790;28;20054;-72
2022/07/29 10:21:13;;;;;;;12.45;4.43;;;;;;;29.08;33.18;99572.69;5010799;28;20053;-70
2022/07/29 10:23:42;;;;;;;11.73;5.50;;;;;;;28.88;33.17;99581.53;5011058;28;20064;-70
2022/07/29 10:26:11;;;;;;;11.50;4.93;;;;;;;28.44;33.65;99579.94;5009940;28;20062;-71
2022/07/29 10:28:37;;;;;;;9.02;4.68;;;;;;;28.64;33.50;99579.28;5013851;28;20054;-68
2022/07/29 10:31:07;;;;;;;11.38;5.50;;;;;;;28.42;32.93;99579.28;5010700;28;20058;-69
2022/07/29 10:33:48;;;;;;;8.57;5.15;;;;;;;28.11;33.21;99585.09;5018030;28;20088;-68
2022/07/29 10:36:27;;;;;;;12.23;4.50;;;;;;;28.56;33.04;99574.00;5024058;28;20135;-69
2022/07/29 10:39:04;;;;;;;12.45;5.07;;;;;;;28.69;32.88;99574.94;5031261;28;20069;-68
2022/07/29 10:42:04;;;;;;;4.57;3.28;;;;;;;29.09;31.59;99561.66;5030814;28;20053;-70
2022/07/29 10:44:31;;;;;;;5.80;3.33;;;;;;;28.82;31.53;99576.91;5026247;28;20493;-69
2022/07/29 10:46:58;;;;;;;6.47;3.53;;;;;;;29.19;31.47;99576.69;5029958;28;20077;-68
2022/07/29 10:49:27;;;;;;;7.97;3.28;;;;;;;29.52;30.32;99580.41;5030085;28;20049;-69
2022/07/29 10:52:05;;;;;;;6.78;3.95;;;;;;;29.41;30.88;99581.00;5030058;28;20049;-69
2022/07/29 10:54:42;;;;;;;8.50;4.93;;;;;;;29.43;31.14;99575.34;5031061;28;20103;-70
2022/07/29 10:57:13;;;;;;;10.38;4.15;;;;;;;29.57;31.13;99581.69;5030083;28;20041;-70
2022/07/29 10:59:41;;;;;;;8.60;4.25;;;;;;;29.13;31.97;99580.25;5029182;28;20801;-70
2022/07/29 11:02:42;;;;;;;10.18;4.43;;;;;;;28.39;33.82;99595.13;5030861;28;20685;-71
2022/07/29 11:05:09;;;;;;;6.85;4.00;;;;;;;27.34;34.65;99589.19;5012112;28;21035;-70
2022/07/29 11:07:37;;;;;;;10.75;3.75;;;;;;;27.13;34.82;99589.94;5021743;28;20116;-70
2022/07/29 11:10:27;;;;;;;7.28;3.90;;;;;;;26.91;35.46;99582.78;5017353;28;20037;-70
2022/07/29 11:12:54;;;;;;;10.80;4.22;;;;;;;26.34;36.48;99582.28;5033094;28;20622;-72
2022/07/29 11:15:22;;;;;;;8.30;3.95;;;;;;;26.29;37.15;99586.56;5032740;28;20096;-70
2022/07/29 11:18:07;;;;;;;8.85;3.88;;;;;;;26.52;36.95;99583.81;5035183;28;20053;-70
2022/07/29 11:20:38;;;;;;;;;;;;;;;26.25;37.15;99585.25;5033204;28;20057;-69
2022/07/29 11:23:24;;;;;;;12.35;3.55;;;;;;;25.67;38.72;99591.03;5032424;28;19956;-67
2022/07/29 11:26:19;;;;;;;9.68;3.38;;;;;;;25.40;39.23;99595.06;5049216;28;20067;-69
2022/07/29 11:28:58;;;;;;;12.85;4.22;;;;;;;25.39;39.18;99595.22;5056376;28;20049;-68
2022/07/29 11:31:37;;;;;;;5.40;3.67;;;;;;;25.33;39.49;99591.38;5038865;28;20067;-69
2022/07/29 11:34:24;;;;;;;10.10;3.90;;;;;;;25.64;38.78;99590.53;5030190;28;20140;-70
2022/07/29 11:37:16;;;;;;;9.98;3.15;;;;;;;25.71;40.07;99595.03;5031092;28;20124;-69
2022/07/29 11:39:45;;;;;;;7.32;3.58;;;;;;;25.48;40.26;99589.59;5011008;28;20057;-69
2022/07/29 11:42:53;;;;;;;7.13;3.72;;;;;;;25.48;39.91;99592.31;5021742;28;20072;-70
2022/07/29 11:45:31;;;;;;;11.50;4.05;;;;;;;25.41;40.27;99602.13;5006732;28;20642;-69
2022/07/29 11:47:59;;;;;;;12.15;4.20;;;;;;;25.31;40.40;99600.66;5010983;28;20072;-70
2022/07/29 11:50:33;;;;;;;9.32;5.13;;;;;;;25.25;40.07;99603.03;5010853;28;20053;-72
2022/07/29 11:53:00;;;;;;;7.20;4.82;;;;;;;25.11;41.18;99589.41;5010977;28;20497;-69